createdAt,value
2023-05-08T00:03:57.946Z,6.07
2023-05-08T00:09:01.136Z,7.97
2023-05-08T00:14:04.086Z,7.28
2023-05-08T00:19:08.239Z,7.05
2023-05-08T00:24:10.996Z,6.75
2023-05-08T00:29:13.862Z,6.85
2023-05-08T00:34:17.326Z,8.57
2023-05-08T00:39:20.142Z,8.18
2023-05-08T00:44:24.076Z,10.43
2023-05-08T00:49:27.864Z,9.45
2023-05-08T00:54:31.327Z,5.72
2023-05-08T00:59:35.534Z,5.15
2023-05-08T01:04:39.501Z,5.43
2023-05-08T01:09:42.049Z,6.60
2023-05-08T01:15:04.096Z,5.82
2023-05-08T01:20:25.579Z,3.03
2023-05-08T01:25:57.927Z,3.67
2023-05-08T01:31:40.331Z,2.95
2023-05-08T01:36:49.736Z,2.85
2023-05-08T01:42:19.032Z,3.15
2023-05-08T01:47:26.340Z,3.92
2023-05-08T01:52:43.316Z,5.15
2023-05-08T01:57:49.740Z,3.00
2023-05-08T02:02:54.672Z,3.72
2023-05-08T02:07:59.011Z,2.50
2023-05-08T02:13:02.776Z,3.17
2023-05-08T02:18:08.953Z,3.65
2023-05-08T02:23:13.156Z,5.75
2023-05-08T02:28:17.296Z,4.50
2023-05-08T02:33:20.953Z,3.90
2023-05-08T02:38:26.558Z,2.85
2023-05-08T02:43:29.024Z,3.85
2023-05-08T02:48:39.585Z,4.68
2023-05-08T02:53:52.317Z,2.65
2023-05-08T02:59:47.479Z,2.65
2023-05-08T03:05:03.568Z,2.65
2023-05-08T03:10:11.035Z,7.70
2023-05-08T03:15:21.856Z,4.25
2023-05-08T03:20:27.162Z,5.72
2023-05-08T03:25:30.484Z,8.50
2023-05-08T03:30:36.824Z,3.38
2023-05-08T03:35:43.757Z,4.70
2023-05-08T03:40:47.260Z,5.65
2023-05-08T03:45:52.055Z,4.70
2023-05-08T03:50:55.342Z,6.43
2023-05-08T03:55:59.833Z,5.10
2023-05-08T04:01:14.960Z,3.45
2023-05-08T04:06:52.845Z,3.95
2023-05-08T04:12:26.859Z,5.30
2023-05-08T04:17:44.448Z,5.63
2023-05-08T04:22:51.136Z,7.05
2023-05-08T04:27:56.311Z,4.45
2023-05-08T04:33:00.486Z,5.30
2023-05-08T04:38:03.996Z,5.45
2023-05-08T04:43:07.950Z,7.95
2023-05-08T04:48:10.819Z,5.78
2023-05-08T04:53:13.369Z,5.65
2023-05-08T04:58:16.546Z,5.65
2023-05-08T05:03:20.156Z,6.75
2023-05-08T05:08:24.125Z,3.35
2023-05-08T05:13:27.343Z,11.15
2023-05-08T05:18:30.912Z,9.63
2023-05-08T05:23:34.646Z,24.42
2023-05-08T05:28:37.939Z,5.55
2023-05-08T05:33:42.597Z,6.53
2023-05-08T05:38:46.104Z,4.72
2023-05-08T05:43:49.266Z,6.60
2023-05-08T05:48:52.146Z,3.22
2023-05-08T05:53:54.711Z,6.07
2023-05-08T05:58:58.474Z,10.23
2023-05-08T06:04:01.894Z,9.15
2023-05-08T06:09:07.766Z,4.68
2023-05-08T06:14:11.324Z,6.50
2023-05-08T06:19:14.990Z,4.43
2023-05-08T06:24:18.646Z,5.15
2023-05-08T06:29:20.996Z,3.97
2023-05-08T06:34:23.478Z,5.30
2023-05-08T06:39:26.992Z,6.60
2023-05-08T06:44:29.293Z,7.70
2023-05-08T06:49:31.706Z,7.32
2023-05-08T06:54:34.579Z,5.50
2023-05-08T06:59:37.511Z,12.18
2023-05-08T07:04:40.293Z,11.32
2023-05-08T07:09:43.550Z,4.05
2023-05-08T07:14:46.105Z,4.93
2023-05-08T07:19:52.718Z,8.48
2023-05-08T07:24:55.020Z,3.90
2023-05-08T07:30:04.553Z,4.88
2023-05-08T07:35:12.197Z,4.07
2023-05-08T07:40:14.810Z,4.07
2023-05-08T07:45:17.565Z,6.47
2023-05-08T07:50:21.784Z,5.28
2023-05-08T07:55:24.767Z,4.65
2023-05-08T08:00:30.647Z,2.83
2023-05-08T08:05:33.504Z,5.20
2023-05-08T08:10:37.047Z,9.15
2023-05-08T08:15:39.964Z,10.15
2023-05-08T08:20:43.036Z,10.98
2023-05-08T08:25:45.885Z,6.38
2023-05-08T08:30:49.424Z,6.47
2023-05-08T08:35:52.510Z,6.78
2023-05-08T08:40:56.252Z,9.20
2023-05-08T08:46:00.290Z,7.57
2023-05-08T08:51:08.037Z,2.80
2023-05-08T08:56:12.580Z,6.35
2023-05-08T09:01:18.781Z,6.80
2023-05-08T09:06:22.345Z,8.05
2023-05-08T09:11:26.016Z,6.78
2023-05-08T09:16:29.600Z,13.13
2023-05-08T09:21:32.856Z,8.65
2023-05-08T09:26:37.246Z,6.50
2023-05-08T09:31:42.326Z,6.50
2023-05-08T09:36:46.012Z,4.57
2023-05-08T09:42:06.229Z,5.90
2023-05-08T09:47:19.555Z,3.70
2023-05-08T09:52:23.925Z,10.32
2023-05-08T09:57:27.414Z,11.07
2023-05-08T10:02:31.308Z,5.93
2023-05-08T10:07:37.345Z,6.10
2023-05-08T10:12:42.610Z,4.15
2023-05-08T10:17:55.784Z,6.10
2023-05-08T10:22:59.889Z,6.22
2023-05-08T10:28:25.295Z,2.67
2023-05-08T10:33:34.459Z,4.20
2023-05-08T10:38:38.727Z,6.75
2023-05-08T10:43:45.058Z,10.02
2023-05-08T10:49:10.216Z,11.30
2023-05-08T10:54:18.866Z,9.05
2023-05-08T10:59:24.551Z,5.03
2023-05-08T11:04:29.092Z,9.30
2023-05-08T11:09:47.720Z,4.70
2023-05-08T11:15:09.965Z,5.43
2023-05-08T11:20:12.671Z,6.38
2023-05-08T11:25:15.742Z,10.45
2023-05-08T11:30:33.357Z,3.72
2023-05-08T11:35:48.407Z,9.43
2023-05-08T11:41:00.723Z,3.05
2023-05-08T11:46:16.370Z,4.50
2023-05-08T11:51:22.311Z,6.60
2023-05-08T11:56:24.945Z,3.42
2023-05-08T12:01:29.278Z,3.13
2023-05-08T12:06:33.292Z,10.43
2023-05-08T12:11:36.490Z,12.30
2023-05-08T12:16:40.035Z,14.75
2023-05-08T12:21:49.746Z,21.15
2023-05-08T12:26:58.954Z,22.70
2023-05-08T12:32:01.458Z,15.82
2023-05-08T12:37:05.220Z,11.00
2023-05-08T12:42:09.255Z,10.88
2023-05-08T12:47:12.843Z,3.75
2023-05-08T12:52:16.578Z,8.93
2023-05-08T12:57:21.594Z,7.85
2023-05-08T13:02:25.818Z,11.15
2023-05-08T13:07:32.836Z,12.48
2023-05-08T13:12:35.249Z,6.22
2023-05-08T13:17:37.882Z,5.07
2023-05-08T13:22:40.669Z,8.48
2023-05-08T13:27:43.092Z,6.43
2023-05-08T13:32:45.915Z,6.07
2023-05-08T13:37:49.853Z,6.95
2023-05-08T13:42:53.039Z,19.58
2023-05-08T13:47:56.798Z,18.38
2023-05-08T13:52:59.812Z,9.40
2023-05-08T13:58:02.380Z,2.28
2023-05-08T14:03:05.035Z,4.13
2023-05-08T14:08:08.182Z,4.97
2023-05-08T14:13:11.473Z,7.80
2023-05-08T14:18:14.009Z,6.70
2023-05-08T14:23:16.561Z,2.30
2023-05-08T14:28:18.936Z,4.28
2023-05-08T14:33:21.391Z,6.65
2023-05-08T14:38:23.883Z,6.95
2023-05-08T14:43:26.321Z,2.80
2023-05-08T14:48:29.805Z,7.22
2023-05-08T14:53:32.816Z,2.80
2023-05-08T14:58:35.717Z,6.20
2023-05-08T15:03:39.342Z,3.50
2023-05-08T15:08:42.524Z,6.97
2023-05-08T15:13:45.031Z,9.68
2023-05-08T15:18:47.356Z,4.03
2023-05-08T15:23:49.795Z,6.75
2023-05-08T15:28:52.133Z,7.55
2023-05-08T15:33:57.416Z,4.40
2023-05-08T15:39:00.109Z,8.55
2023-05-08T15:44:02.881Z,4.47
2023-05-08T15:49:05.789Z,5.15
2023-05-08T15:54:09.237Z,4.63
2023-05-08T15:59:12.044Z,8.82
2023-05-08T16:04:14.818Z,5.35
2023-05-08T16:09:17.380Z,9.27
2023-05-08T16:14:20.865Z,5.68
2023-05-08T16:19:23.977Z,5.32
2023-05-08T16:24:26.517Z,5.90
2023-05-08T16:29:29.047Z,3.72
2023-05-08T16:34:31.456Z,5.00
2023-05-08T16:39:35.228Z,4.95
2023-05-08T16:44:37.661Z,6.63
2023-05-08T16:49:40.840Z,4.13
2023-05-08T16:54:43.134Z,3.97
2023-05-08T16:59:47.295Z,6.60
2023-05-08T17:04:50.783Z,14.90
2023-05-08T17:09:59.656Z,5.32
2023-05-08T17:15:02.401Z,6.20
2023-05-08T17:20:09.340Z,7.60
2023-05-08T17:25:12.695Z,6.07
2023-05-08T17:30:17.037Z,15.52
2023-05-08T17:35:19.883Z,23.38
2023-05-08T17:40:22.510Z,15.98
2023-05-08T17:45:24.985Z,9.80
2023-05-08T17:50:27.192Z,9.48
2023-05-08T17:55:31.670Z,10.48
2023-05-08T18:00:33.985Z,7.63
2023-05-08T18:05:37.945Z,8.80
2023-05-08T18:10:41.305Z,7.72
2023-05-08T18:15:46.957Z,4.50
2023-05-08T18:20:49.560Z,7.47
2023-05-08T18:25:52.036Z,8.45
2023-05-08T18:30:54.624Z,15.23
2023-05-08T18:35:56.975Z,9.57
2023-05-08T18:41:02.264Z,16.13
2023-05-08T18:46:09.462Z,25.25
2023-05-08T18:51:11.978Z,21.73
2023-05-08T18:56:14.447Z,22.83
2023-05-08T19:01:21.454Z,22.10
2023-05-08T19:06:24.272Z,23.48
2023-05-08T19:11:26.646Z,18.92
2023-05-08T19:16:29.483Z,18.45
2023-05-08T19:21:32.112Z,17.58
2023-05-08T19:26:34.501Z,16.08
2023-05-08T19:31:36.914Z,7.28
2023-05-08T19:36:40.269Z,10.23
2023-05-08T19:41:44.078Z,13.35
2023-05-08T19:46:46.814Z,15.60
2023-05-08T19:51:49.756Z,16.70
2023-05-08T19:56:52.037Z,12.15
2023-05-08T20:01:54.492Z,10.60
2023-05-08T20:06:58.592Z,5.75
2023-05-08T20:12:01.659Z,4.95
2023-05-08T20:17:04.617Z,3.35
2023-05-08T20:22:07.415Z,4.88
2023-05-08T20:27:10.459Z,1.77
2023-05-08T20:32:19.327Z,4.35
2023-05-08T20:37:21.799Z,5.82
2023-05-08T20:42:24.557Z,5.47
2023-05-08T20:47:27.757Z,5.35
2023-05-08T20:52:32.877Z,2.92
2023-05-08T20:57:35.795Z,3.92
2023-05-08T21:02:41.955Z,5.32
2023-05-08T21:07:44.333Z,2.63
2023-05-08T21:12:47.275Z,2.80
2023-05-08T21:17:50.901Z,4.03
2023-05-08T21:22:53.841Z,3.03
2023-05-08T21:27:56.318Z,5.45
2023-05-08T21:32:59.933Z,5.07
2023-05-08T21:38:02.343Z,3.42
2023-05-08T21:43:05.794Z,3.58
2023-05-08T21:48:10.381Z,4.05
2023-05-08T21:53:12.719Z,6.32
2023-05-08T21:58:15.609Z,5.97
2023-05-08T22:03:18.591Z,5.32
2023-05-08T22:08:23.640Z,8.02
2023-05-08T22:13:26.564Z,4.05
2023-05-08T22:18:30.252Z,4.53
2023-05-08T22:23:36.171Z,3.15
2023-05-08T22:28:39.640Z,8.77
2023-05-08T22:33:41.967Z,6.65
2023-05-08T22:38:46.255Z,9.88
2023-05-08T22:43:49.200Z,5.28
2023-05-08T22:48:54.636Z,6.65
2023-05-08T22:53:57.064Z,5.05
2023-05-08T22:58:59.375Z,6.40
2023-05-08T23:04:02.103Z,9.38
2023-05-08T23:09:04.901Z,6.60
2023-05-08T23:14:07.327Z,7.13
2023-05-08T23:19:10.346Z,6.85
2023-05-08T23:24:12.829Z,6.40
2023-05-08T23:29:15.726Z,8.80
2023-05-08T23:34:18.053Z,6.05
2023-05-08T23:39:22.001Z,3.30
2023-05-08T23:44:24.418Z,2.67
2023-05-08T23:49:26.796Z,4.05
2023-05-08T23:54:29.435Z,4.13
2023-05-08T23:59:33.241Z,3.10
